Pinebluff, North Carolina
Current Conditions -  °F | °C
As of 10:29 AM on Wednesday 26 Nov 2014 (Local Time) from KHFF Reporting Station
Broken Clouds Broken Clouds  
Wind Chill: 45°   Ceiling: 1000
Heat Index: 48°   Visibility: 10mi
Dew Point: 46°   Wind: 8mph
Humidity: 93%   Direction: 360°N
Pressure: 29.92"   Gusts: NA
Location:  35.11°N, 79.47°W
Report Text: KHFF 261529Z AUTO 36007KT 10SM BKN010 09/08 A2992 RMK AO2 LTG DSNT S PRESFR
Loading
Personal Weather Stations






























Interactive Weather Map New forecast layout! Learn more

10-Day Weather Forecast

Advertisements
Track Severe Weather on mobile